createdAt,value
2024-01-26T00:02:14.473Z,3602
2024-01-26T00:12:15.897Z,3600
2024-01-26T00:22:14.587Z,3600
2024-01-26T00:32:15.043Z,3597
2024-01-26T00:42:16.417Z,3581
2024-01-26T00:52:14.528Z,3589
2024-01-26T01:02:14.455Z,3594
2024-01-26T01:12:15.715Z,3594
2024-01-26T01:22:17.274Z,3581
2024-01-26T01:32:15.950Z,3589
2024-01-26T01:53:56.101Z,3579
2024-01-26T02:02:46.368Z,3587
2024-01-26T02:12:14.557Z,3594
2024-01-26T02:22:14.780Z,3597
2024-01-26T02:32:14.779Z,3589
2024-01-26T02:42:14.537Z,3594
2024-01-26T02:52:15.057Z,3594
2024-01-26T03:02:14.612Z,3597
2024-01-26T03:12:14.632Z,3600
2024-01-26T03:22:14.430Z,3600
2024-01-26T03:32:14.338Z,3602
2024-01-26T03:42:14.830Z,3602
2024-01-26T03:52:14.735Z,3605
2024-01-26T04:02:14.567Z,3605
2024-01-26T04:42:16.280Z,3579
2024-01-26T04:52:14.573Z,3589
2024-01-26T05:02:14.261Z,3587
2024-01-26T05:12:15.109Z,3589
2024-01-26T05:22:16.717Z,3592
2024-01-26T05:32:14.935Z,3594
2024-01-26T05:42:14.720Z,3594
2024-01-26T05:52:14.380Z,3589
2024-01-26T06:02:14.911Z,3589
2024-01-26T06:12:16.621Z,3574
2024-01-26T06:22:14.581Z,3581
2024-01-26T06:32:14.146Z,3587
2024-01-26T06:42:14.103Z,3592
2024-01-26T06:52:14.424Z,3589
2024-01-26T07:02:14.129Z,3594
2024-01-26T07:12:14.565Z,3589
2024-01-26T07:22:14.192Z,3589
2024-01-26T07:32:14.129Z,3594
2024-01-26T07:42:14.542Z,3594
2024-01-26T07:52:14.684Z,3587
2024-01-26T08:02:14.099Z,3589
2024-01-26T08:12:24.691Z,3592
2024-01-26T08:22:16.074Z,3581
2024-01-26T08:32:14.247Z,3592
2024-01-26T08:42:14.140Z,3594
2024-01-26T08:52:14.054Z,3600
2024-01-26T09:02:14.603Z,3605
2024-01-26T09:12:20.042Z,3602
2024-01-26T09:22:14.203Z,3607
2024-01-26T09:32:14.597Z,3602
2024-01-26T09:42:14.086Z,3607
2024-01-26T09:52:14.277Z,3610
2024-01-26T10:02:13.934Z,3610
2024-01-26T10:12:14.090Z,3610
2024-01-26T10:22:14.258Z,3610
2024-01-26T10:32:13.830Z,3613
2024-01-26T10:42:14.007Z,3613
2024-01-26T10:52:14.009Z,3615
2024-01-26T11:02:13.848Z,3615
2024-01-26T11:12:21.006Z,3610
2024-01-26T11:22:13.782Z,3610
2024-01-26T11:32:14.141Z,3613
2024-01-26T11:42:13.963Z,3615
2024-01-26T11:52:13.762Z,3613
2024-01-26T12:02:13.757Z,3615
2024-01-26T12:12:24.334Z,3613
2024-01-26T12:22:20.265Z,3607
2024-01-26T12:32:13.743Z,3610
2024-01-26T12:42:13.744Z,3610
2024-01-26T12:52:14.142Z,3605
2024-01-26T13:02:13.681Z,3610
2024-01-26T13:12:21.495Z,3607
2024-01-26T13:22:15.814Z,3610
2024-01-26T13:32:13.610Z,3610
2024-01-26T13:42:13.769Z,3610
2024-01-26T13:52:13.861Z,3613
2024-01-26T14:02:13.544Z,3613
2024-01-26T14:12:14.148Z,3613
2024-01-26T14:22:13.996Z,3605
2024-01-26T14:32:13.479Z,3607
2024-01-26T14:42:13.774Z,3610
2024-01-26T14:52:13.447Z,3610
2024-01-26T15:02:13.493Z,3610
2024-01-26T15:12:26.549Z,3613
2024-01-26T15:22:13.485Z,3613
2024-01-26T15:32:13.504Z,3605
2024-01-26T15:42:13.643Z,3605
2024-01-26T15:52:13.627Z,3602
2024-01-26T16:02:13.628Z,3605
2024-01-26T16:12:13.531Z,3610
2024-01-26T16:22:13.835Z,3610
2024-01-26T16:32:13.989Z,3610
2024-01-26T16:42:13.364Z,3610
2024-01-26T16:52:13.800Z,3605
2024-01-26T17:02:13.520Z,3605
2024-01-26T17:12:14.200Z,3602
2024-01-26T17:22:15.656Z,3587
2024-01-26T17:32:18.473Z,3592
2024-01-26T17:42:13.624Z,3600
2024-01-26T17:52:13.477Z,3597
2024-01-26T18:02:32.466Z,3602
2024-01-26T18:12:13.385Z,3605
2024-01-26T18:22:13.772Z,3602
2024-01-26T18:32:13.247Z,3605
2024-01-26T18:42:13.601Z,3607
2024-01-26T18:52:13.663Z,3605
2024-01-26T19:02:13.194Z,3605
2024-01-26T19:12:15.901Z,3605
2024-01-26T19:22:13.730Z,3610
2024-01-26T19:32:13.646Z,3605
2024-01-26T19:42:13.197Z,3605
2024-01-26T19:52:13.398Z,3607
2024-01-26T20:02:13.133Z,3610
2024-01-26T20:12:13.121Z,3610
2024-01-26T20:22:13.188Z,3610
2024-01-26T20:32:13.671Z,3605
2024-01-26T20:42:13.120Z,3584
2024-01-26T20:52:13.165Z,3594
2024-01-26T21:02:13.057Z,3600
2024-01-26T21:12:13.437Z,3605
2024-01-26T21:22:13.412Z,3605
2024-01-26T21:32:13.021Z,3607
2024-01-26T21:42:13.363Z,3600
2024-01-26T21:52:13.478Z,3594
2024-01-26T22:02:13.014Z,3600
2024-01-26T22:12:13.600Z,3597
2024-01-26T22:22:13.111Z,3602
2024-01-26T22:32:14.371Z,3605
2024-01-26T22:42:13.032Z,3605
2024-01-26T22:52:12.919Z,3607
2024-01-26T23:02:12.956Z,3605
2024-01-26T23:12:13.232Z,3610
2024-01-26T23:22:13.326Z,3607
2024-01-26T23:32:13.306Z,3607
2024-01-26T23:42:17.998Z,3607
2024-01-26T23:55:21.677Z,3602
